sensor_id;sensor_type;location;lat;lon;timestamp;P1;durP1;ratioP1;P2;durP2;ratioP2
23636;SDS011;11995;50.842;4.456;2023-02-01T00:00:39;40.08;;;16.27;;
23636;SDS011;11995;50.842;4.456;2023-02-01T00:03:06;39.13;;;15.72;;
23636;SDS011;11995;50.842;4.456;2023-02-01T00:05:34;39.98;;;14.75;;
23636;SDS011;11995;50.842;4.456;2023-02-01T00:08:02;40.63;;;16.10;;
23636;SDS011;11995;50.842;4.456;2023-02-01T00:10:29;36.03;;;15.95;;
23636;SDS011;11995;50.842;4.456;2023-02-01T00:12:57;41.85;;;16.35;;
23636;SDS011;11995;50.842;4.456;2023-02-01T00:15:24;38.15;;;17.05;;
23636;SDS011;11995;50.842;4.456;2023-02-01T00:17:55;50.78;;;17.32;;
23636;SDS011;11995;50.842;4.456;2023-02-01T00:20:22;40.35;;;16.97;;
23636;SDS011;11995;50.842;4.456;2023-02-01T00:22:50;42.53;;;16.42;;
23636;SDS011;11995;50.842;4.456;2023-02-01T00:25:17;37.65;;;17.82;;
23636;SDS011;11995;50.842;4.456;2023-02-01T00:27:48;36.90;;;17.45;;
23636;SDS011;11995;50.842;4.456;2023-02-01T00:30:17;44.67;;;18.90;;
23636;SDS011;11995;50.842;4.456;2023-02-01T00:32:45;47.73;;;18.90;;
23636;SDS011;11995;50.842;4.456;2023-02-01T00:35:12;47.50;;;17.60;;
23636;SDS011;11995;50.842;4.456;2023-02-01T00:37:40;45.70;;;17.60;;
23636;SDS011;11995;50.842;4.456;2023-02-01T00:40:08;43.73;;;16.55;;
23636;SDS011;11995;50.842;4.456;2023-02-01T00:42:40;36.40;;;16.07;;
23636;SDS011;11995;50.842;4.456;2023-02-01T00:45:07;37.70;;;16.77;;
23636;SDS011;11995;50.842;4.456;2023-02-01T00:47:36;37.17;;;17.27;;
23636;SDS011;11995;50.842;4.456;2023-02-01T00:50:04;42.50;;;16.50;;
23636;SDS011;11995;50.842;4.456;2023-02-01T00:52:31;41.02;;;14.47;;
23636;SDS011;11995;50.842;4.456;2023-02-01T00:54:59;38.15;;;14.28;;
23636;SDS011;11995;50.842;4.456;2023-02-01T00:57:26;36.33;;;16.02;;
23636;SDS011;11995;50.842;4.456;2023-02-01T00:59:54;34.98;;;13.00;;
23636;SDS011;11995;50.842;4.456;2023-02-01T01:02:21;42.00;;;13.18;;
23636;SDS011;11995;50.842;4.456;2023-02-01T01:04:49;36.28;;;13.20;;
23636;SDS011;11995;50.842;4.456;2023-02-01T01:07:18;35.20;;;12.73;;
23636;SDS011;11995;50.842;4.456;2023-02-01T01:09:46;33.05;;;9.93;;
23636;SDS011;11995;50.842;4.456;2023-02-01T01:12:13;38.02;;;12.20;;
23636;SDS011;11995;50.842;4.456;2023-02-01T01:14:42;38.15;;;11.15;;
23636;SDS011;11995;50.842;4.456;2023-02-01T01:17:09;29.87;;;11.83;;
23636;SDS011;11995;50.842;4.456;2023-02-01T01:19:37;34.27;;;10.88;;
23636;SDS011;11995;50.842;4.456;2023-02-01T01:22:04;34.45;;;10.18;;
23636;SDS011;11995;50.842;4.456;2023-02-01T01:24:33;36.83;;;12.15;;
23636;SDS011;11995;50.842;4.456;2023-02-01T01:27:00;33.13;;;9.40;;
23636;SDS011;11995;50.842;4.456;2023-02-01T01:29:28;31.20;;;11.40;;
23636;SDS011;11995;50.842;4.456;2023-02-01T01:31:56;34.38;;;10.18;;
23636;SDS011;11995;50.842;4.456;2023-02-01T01:34:23;30.17;;;9.28;;
23636;SDS011;11995;50.842;4.456;2023-02-01T01:36:52;30.17;;;8.43;;
23636;SDS011;11995;50.842;4.456;2023-02-01T01:39:19;34.85;;;8.58;;
23636;SDS011;11995;50.842;4.456;2023-02-01T01:41:47;31.57;;;7.65;;
23636;SDS011;11995;50.842;4.456;2023-02-01T01:47:18;28.27;;;7.40;;
23636;SDS011;11995;50.842;4.456;2023-02-01T01:49:45;26.48;;;7.10;;
23636;SDS011;11995;50.842;4.456;2023-02-01T01:52:13;17.98;;;5.45;;
23636;SDS011;11995;50.842;4.456;2023-02-01T01:54:42;25.70;;;6.62;;
23636;SDS011;11995;50.842;4.456;2023-02-01T01:57:16;32.20;;;6.53;;
23636;SDS011;11995;50.842;4.456;2023-02-01T01:59:47;31.52;;;6.37;;
23636;SDS011;11995;50.842;4.456;2023-02-01T02:02:15;30.68;;;6.22;;
23636;SDS011;11995;50.842;4.456;2023-02-01T02:04:44;36.03;;;7.55;;
23636;SDS011;11995;50.842;4.456;2023-02-01T02:07:23;31.87;;;5.72;;
23636;SDS011;11995;50.842;4.456;2023-02-01T02:09:55;26.60;;;5.17;;
23636;SDS011;11995;50.842;4.456;2023-02-01T02:12:23;28.10;;;5.10;;
23636;SDS011;11995;50.842;4.456;2023-02-01T02:14:50;25.25;;;5.40;;
23636;SDS011;11995;50.842;4.456;2023-02-01T02:20:33;24.87;;;4.78;;
23636;SDS011;11995;50.842;4.456;2023-02-01T02:31:46;29.60;;;5.50;;
23636;SDS011;11995;50.842;4.456;2023-02-01T02:34:21;24.23;;;5.92;;
23636;SDS011;11995;50.842;4.456;2023-02-01T02:42:15;23.65;;;5.05;;
23636;SDS011;11995;50.842;4.456;2023-02-01T02:48:18;25.25;;;5.35;;
23636;SDS011;11995;50.842;4.456;2023-02-01T02:50:49;25.25;;;5.10;;
23636;SDS011;11995;50.842;4.456;2023-02-01T02:56:39;23.80;;;5.60;;
23636;SDS011;11995;50.842;4.456;2023-02-01T02:59:26;22.27;;;4.67;;
23636;SDS011;11995;50.842;4.456;2023-02-01T03:02:15;26.80;;;5.62;;
23636;SDS011;11995;50.842;4.456;2023-02-01T03:05:01;35.23;;;12.90;;
23636;SDS011;11995;50.842;4.456;2023-02-01T03:10:22;26.85;;;5.12;;
23636;SDS011;11995;50.842;4.456;2023-02-01T03:21:10;24.47;;;5.33;;
23636;SDS011;11995;50.842;4.456;2023-02-01T03:23:39;30.52;;;5.97;;
23636;SDS011;11995;50.842;4.456;2023-02-01T03:26:28;22.87;;;4.50;;
23636;SDS011;11995;50.842;4.456;2023-02-01T03:29:03;27.82;;;4.87;;
23636;SDS011;11995;50.842;4.456;2023-02-01T03:31:45;27.52;;;4.97;;
23636;SDS011;11995;50.842;4.456;2023-02-01T03:34:12;25.45;;;4.97;;
23636;SDS011;11995;50.842;4.456;2023-02-01T03:36:42;20.80;;;4.87;;
23636;SDS011;11995;50.842;4.456;2023-02-01T03:39:19;26.93;;;4.90;;
23636;SDS011;11995;50.842;4.456;2023-02-01T03:41:51;23.47;;;4.70;;
23636;SDS011;11995;50.842;4.456;2023-02-01T03:47:00;20.70;;;4.20;;
23636;SDS011;11995;50.842;4.456;2023-02-01T03:49:40;31.10;;;5.00;;
23636;SDS011;11995;50.842;4.456;2023-02-01T03:52:14;24.37;;;5.20;;
23636;SDS011;11995;50.842;4.456;2023-02-01T03:54:44;24.65;;;4.78;;
23636;SDS011;11995;50.842;4.456;2023-02-01T03:57:13;26.02;;;5.45;;
23636;SDS011;11995;50.842;4.456;2023-02-01T03:59:44;31.12;;;4.35;;
23636;SDS011;11995;50.842;4.456;2023-02-01T04:02:12;23.77;;;4.40;;
23636;SDS011;11995;50.842;4.456;2023-02-01T04:04:39;28.17;;;4.47;;
23636;SDS011;11995;50.842;4.456;2023-02-01T04:07:07;27.77;;;5.37;;
23636;SDS011;11995;50.842;4.456;2023-02-01T04:09:35;22.80;;;4.05;;
23636;SDS011;11995;50.842;4.456;2023-02-01T04:12:02;29.05;;;4.42;;
23636;SDS011;11995;50.842;4.456;2023-02-01T04:14:30;23.77;;;4.75;;
23636;SDS011;11995;50.842;4.456;2023-02-01T04:16:58;23.35;;;5.00;;
23636;SDS011;11995;50.842;4.456;2023-02-01T04:19:25;28.00;;;4.78;;
23636;SDS011;11995;50.842;4.456;2023-02-01T04:21:53;32.60;;;5.40;;
23636;SDS011;11995;50.842;4.456;2023-02-01T04:24:20;25.23;;;4.40;;
23636;SDS011;11995;50.842;4.456;2023-02-01T04:26:48;24.20;;;4.20;;
23636;SDS011;11995;50.842;4.456;2023-02-01T04:29:15;24.87;;;4.75;;
23636;SDS011;11995;50.842;4.456;2023-02-01T04:31:43;26.10;;;4.97;;
23636;SDS011;11995;50.842;4.456;2023-02-01T04:36:38;24.72;;;4.67;;
23636;SDS011;11995;50.842;4.456;2023-02-01T04:39:06;30.82;;;5.90;;
23636;SDS011;11995;50.842;4.456;2023-02-01T04:41:35;24.60;;;5.17;;
23636;SDS011;11995;50.842;4.456;2023-02-01T04:44:03;29.12;;;5.67;;
23636;SDS011;11995;50.842;4.456;2023-02-01T04:46:30;32.30;;;4.50;;
23636;SDS011;11995;50.842;4.456;2023-02-01T04:48:58;22.77;;;4.15;;
23636;SDS011;11995;50.842;4.456;2023-02-01T04:51:26;30.40;;;5.87;;
23636;SDS011;11995;50.842;4.456;2023-02-01T04:53:54;28.20;;;4.62;;
23636;SDS011;11995;50.842;4.456;2023-02-01T04:56:21;20.92;;;4.55;;
23636;SDS011;11995;50.842;4.456;2023-02-01T04:58:50;26.10;;;5.40;;
23636;SDS011;11995;50.842;4.456;2023-02-01T05:01:17;26.80;;;7.50;;
23636;SDS011;11995;50.842;4.456;2023-02-01T05:03:45;29.23;;;5.45;;
23636;SDS011;11995;50.842;4.456;2023-02-01T05:06:13;35.58;;;5.25;;
23636;SDS011;11995;50.842;4.456;2023-02-01T05:08:40;30.80;;;4.80;;
23636;SDS011;11995;50.842;4.456;2023-02-01T05:11:08;29.40;;;5.12;;
23636;SDS011;11995;50.842;4.456;2023-02-01T05:13:54;28.70;;;5.20;;
23636;SDS011;11995;50.842;4.456;2023-02-01T05:16:21;30.77;;;4.67;;
23636;SDS011;11995;50.842;4.456;2023-02-01T05:18:49;31.30;;;4.85;;
23636;SDS011;11995;50.842;4.456;2023-02-01T05:21:16;27.93;;;4.50;;
23636;SDS011;11995;50.842;4.456;2023-02-01T05:23:44;27.15;;;5.97;;
23636;SDS011;11995;50.842;4.456;2023-02-01T05:26:29;28.80;;;4.78;;
23636;SDS011;11995;50.842;4.456;2023-02-01T05:28:57;26.80;;;5.20;;
23636;SDS011;11995;50.842;4.456;2023-02-01T05:31:24;27.65;;;5.35;;
23636;SDS011;11995;50.842;4.456;2023-02-01T05:33:52;25.00;;;5.55;;
23636;SDS011;11995;50.842;4.456;2023-02-01T05:36:19;31.02;;;6.45;;
23636;SDS011;11995;50.842;4.456;2023-02-01T05:38:47;22.95;;;4.92;;
23636;SDS011;11995;50.842;4.456;2023-02-01T05:41:14;34.00;;;6.75;;
23636;SDS011;11995;50.842;4.456;2023-02-01T05:43:42;30.82;;;6.03;;
23636;SDS011;11995;50.842;4.456;2023-02-01T05:46:09;37.98;;;6.83;;
23636;SDS011;11995;50.842;4.456;2023-02-01T05:48:38;26.12;;;5.33;;
23636;SDS011;11995;50.842;4.456;2023-02-01T05:51:08;26.62;;;4.80;;
23636;SDS011;11995;50.842;4.456;2023-02-01T05:53:36;39.25;;;7.00;;
23636;SDS011;11995;50.842;4.456;2023-02-01T05:56:05;28.98;;;5.10;;
23636;SDS011;11995;50.842;4.456;2023-02-01T05:58:39;25.30;;;5.10;;
23636;SDS011;11995;50.842;4.456;2023-02-01T06:01:06;25.90;;;3.95;;
23636;SDS011;11995;50.842;4.456;2023-02-01T06:03:35;26.52;;;5.10;;
23636;SDS011;11995;50.842;4.456;2023-02-01T06:06:02;31.93;;;4.83;;
23636;SDS011;11995;50.842;4.456;2023-02-01T06:08:30;22.05;;;4.37;;
23636;SDS011;11995;50.842;4.456;2023-02-01T06:11:04;24.70;;;4.87;;
23636;SDS011;11995;50.842;4.456;2023-02-01T06:13:27;30.37;;;4.25;;
23636;SDS011;11995;50.842;4.456;2023-02-01T06:15:55;30.70;;;5.22;;
23636;SDS011;11995;50.842;4.456;2023-02-01T06:18:25;30.40;;;5.42;;
23636;SDS011;11995;50.842;4.456;2023-02-01T06:20:58;30.40;;;5.30;;
23636;SDS011;11995;50.842;4.456;2023-02-01T06:23:23;22.45;;;4.17;;
23636;SDS011;11995;50.842;4.456;2023-02-01T06:25:57;18.25;;;3.85;;
23636;SDS011;11995;50.842;4.456;2023-02-01T06:28:36;28.32;;;5.50;;
23636;SDS011;11995;50.842;4.456;2023-02-01T06:33:33;33.23;;;5.25;;
23636;SDS011;11995;50.842;4.456;2023-02-01T06:36:03;24.50;;;4.70;;
23636;SDS011;11995;50.842;4.456;2023-02-01T06:38:32;27.82;;;5.25;;
23636;SDS011;11995;50.842;4.456;2023-02-01T06:41:04;31.40;;;4.78;;
23636;SDS011;11995;50.842;4.456;2023-02-01T06:43:32;29.23;;;4.62;;
23636;SDS011;11995;50.842;4.456;2023-02-01T06:46:05;24.85;;;4.87;;
23636;SDS011;11995;50.842;4.456;2023-02-01T06:48:30;28.65;;;5.55;;
23636;SDS011;11995;50.842;4.456;2023-02-01T06:50:58;31.60;;;5.00;;
23636;SDS011;11995;50.842;4.456;2023-02-01T06:53:26;27.05;;;4.90;;
23636;SDS011;11995;50.842;4.456;2023-02-01T06:55:54;26.87;;;4.65;;
23636;SDS011;11995;50.842;4.456;2023-02-01T06:58:24;37.55;;;5.17;;
23636;SDS011;11995;50.842;4.456;2023-02-01T07:00:53;35.08;;;5.85;;
23636;SDS011;11995;50.842;4.456;2023-02-01T07:03:20;25.57;;;4.42;;
23636;SDS011;11995;50.842;4.456;2023-02-01T07:05:48;32.85;;;5.35;;
23636;SDS011;11995;50.842;4.456;2023-02-01T07:08:15;23.87;;;5.03;;
23636;SDS011;11995;50.842;4.456;2023-02-01T07:10:44;28.57;;;5.15;;
23636;SDS011;11995;50.842;4.456;2023-02-01T07:13:11;24.43;;;5.65;;
23636;SDS011;11995;50.842;4.456;2023-02-01T07:15:39;26.87;;;5.78;;
23636;SDS011;11995;50.842;4.456;2023-02-01T07:18:07;25.68;;;5.78;;
23636;SDS011;11995;50.842;4.456;2023-02-01T07:20:35;30.35;;;5.40;;
23636;SDS011;11995;50.842;4.456;2023-02-01T07:23:02;50.95;;;6.45;;
23636;SDS011;11995;50.842;4.456;2023-02-01T07:25:30;34.85;;;5.47;;
23636;SDS011;11995;50.842;4.456;2023-02-01T07:27:57;36.05;;;5.78;;
23636;SDS011;11995;50.842;4.456;2023-02-01T07:30:26;27.30;;;6.45;;
23636;SDS011;11995;50.842;4.456;2023-02-01T07:32:53;29.45;;;4.70;;
23636;SDS011;11995;50.842;4.456;2023-02-01T07:35:21;34.18;;;5.55;;
23636;SDS011;11995;50.842;4.456;2023-02-01T07:37:48;19.73;;;5.42;;
23636;SDS011;11995;50.842;4.456;2023-02-01T07:40:16;34.00;;;5.30;;
23636;SDS011;11995;50.842;4.456;2023-02-01T07:42:44;31.52;;;7.60;;
23636;SDS011;11995;50.842;4.456;2023-02-01T07:45:11;35.38;;;4.85;;
23636;SDS011;11995;50.842;4.456;2023-02-01T07:47:39;29.42;;;5.53;;
23636;SDS011;11995;50.842;4.456;2023-02-01T07:50:07;25.55;;;5.33;;
23636;SDS011;11995;50.842;4.456;2023-02-01T07:52:36;32.20;;;4.67;;
23636;SDS011;11995;50.842;4.456;2023-02-01T07:55:04;25.35;;;4.75;;
23636;SDS011;11995;50.842;4.456;2023-02-01T07:57:32;27.73;;;5.10;;
23636;SDS011;11995;50.842;4.456;2023-02-01T07:59:59;27.87;;;4.83;;
23636;SDS011;11995;50.842;4.456;2023-02-01T08:02:45;23.90;;;5.05;;
23636;SDS011;11995;50.842;4.456;2023-02-01T08:05:14;31.87;;;5.17;;
23636;SDS011;11995;50.842;4.456;2023-02-01T08:07:42;27.87;;;4.40;;
23636;SDS011;11995;50.842;4.456;2023-02-01T08:10:09;40.35;;;6.28;;
23636;SDS011;11995;50.842;4.456;2023-02-01T08:12:37;30.45;;;4.80;;
23636;SDS011;11995;50.842;4.456;2023-02-01T08:15:04;23.60;;;6.05;;
23636;SDS011;11995;50.842;4.456;2023-02-01T08:17:33;32.10;;;5.60;;
23636;SDS011;11995;50.842;4.456;2023-02-01T08:20:00;32.20;;;5.78;;
23636;SDS011;11995;50.842;4.456;2023-02-01T08:22:31;25.27;;;6.30;;
23636;SDS011;11995;50.842;4.456;2023-02-01T08:25:00;36.83;;;5.50;;
23636;SDS011;11995;50.842;4.456;2023-02-01T08:27:28;29.02;;;6.05;;
23636;SDS011;11995;50.842;4.456;2023-02-01T08:29:55;30.25;;;5.20;;
23636;SDS011;11995;50.842;4.456;2023-02-01T08:32:23;31.55;;;6.05;;
23636;SDS011;11995;50.842;4.456;2023-02-01T08:34:50;28.10;;;5.55;;
23636;SDS011;11995;50.842;4.456;2023-02-01T08:37:18;32.35;;;6.03;;
23636;SDS011;11995;50.842;4.456;2023-02-01T08:39:45;45.50;;;7.37;;
23636;SDS011;11995;50.842;4.456;2023-02-01T08:42:15;35.43;;;6.47;;
23636;SDS011;11995;50.842;4.456;2023-02-01T08:45:02;35.92;;;6.03;;
23636;SDS011;11995;50.842;4.456;2023-02-01T08:47:33;26.80;;;5.47;;
23636;SDS011;11995;50.842;4.456;2023-02-01T08:50:01;40.87;;;6.03;;
23636;SDS011;11995;50.842;4.456;2023-02-01T08:52:29;25.97;;;5.12;;
23636;SDS011;11995;50.842;4.456;2023-02-01T08:54:56;27.13;;;6.03;;
23636;SDS011;11995;50.842;4.456;2023-02-01T08:57:24;26.80;;;5.95;;
23636;SDS011;11995;50.842;4.456;2023-02-01T08:59:51;30.77;;;5.95;;
23636;SDS011;11995;50.842;4.456;2023-02-01T09:02:19;37.03;;;5.55;;
23636;SDS011;11995;50.842;4.456;2023-02-01T09:04:47;30.27;;;5.20;;
23636;SDS011;11995;50.842;4.456;2023-02-01T09:07:15;28.07;;;5.95;;
23636;SDS011;11995;50.842;4.456;2023-02-01T09:09:43;28.35;;;5.53;;
23636;SDS011;11995;50.842;4.456;2023-02-01T09:12:12;29.35;;;6.25;;
23636;SDS011;11995;50.842;4.456;2023-02-01T09:14:40;28.70;;;5.37;;
23636;SDS011;11995;50.842;4.456;2023-02-01T09:17:07;38.05;;;5.62;;
23636;SDS011;11995;50.842;4.456;2023-02-01T09:19:35;30.65;;;4.65;;
23636;SDS011;11995;50.842;4.456;2023-02-01T09:22:02;32.28;;;5.58;;
23636;SDS011;11995;50.842;4.456;2023-02-01T09:24:30;27.10;;;6.10;;
23636;SDS011;11995;50.842;4.456;2023-02-01T09:26:58;35.68;;;5.60;;
23636;SDS011;11995;50.842;4.456;2023-02-01T09:29:25;25.90;;;5.03;;
23636;SDS011;11995;50.842;4.456;2023-02-01T09:31:53;26.17;;;5.70;;
23636;SDS011;11995;50.842;4.456;2023-02-01T09:34:20;29.45;;;5.28;;
23636;SDS011;11995;50.842;4.456;2023-02-01T09:36:48;29.20;;;4.85;;
23636;SDS011;11995;50.842;4.456;2023-02-01T09:39:15;28.20;;;5.35;;
23636;SDS011;11995;50.842;4.456;2023-02-01T09:41:49;25.17;;;5.03;;
23636;SDS011;11995;50.842;4.456;2023-02-01T09:47:12;29.55;;;6.35;;
23636;SDS011;11995;50.842;4.456;2023-02-01T09:49:52;28.38;;;6.08;;
23636;SDS011;11995;50.842;4.456;2023-02-01T09:52:24;21.87;;;5.03;;
23636;SDS011;11995;50.842;4.456;2023-02-01T09:55:13;25.15;;;4.95;;
23636;SDS011;11995;50.842;4.456;2023-02-01T09:57:40;27.73;;;5.37;;
23636;SDS011;11995;50.842;4.456;2023-02-01T10:00:14;24.27;;;5.12;;
23636;SDS011;11995;50.842;4.456;2023-02-01T10:02:42;19.02;;;4.75;;
23636;SDS011;11995;50.842;4.456;2023-02-01T10:05:16;29.50;;;5.23;;
23636;SDS011;11995;50.842;4.456;2023-02-01T10:07:54;20.95;;;5.22;;
23636;SDS011;11995;50.842;4.456;2023-02-01T10:18:36;25.88;;;5.55;;
23636;SDS011;11995;50.842;4.456;2023-02-01T10:21:26;23.98;;;4.95;;
23636;SDS011;11995;50.842;4.456;2023-02-01T10:24:11;21.27;;;3.65;;
23636;SDS011;11995;50.842;4.456;2023-02-01T10:27:09;20.72;;;3.75;;
23636;SDS011;11995;50.842;4.456;2023-02-01T10:29:31;23.80;;;4.58;;
23636;SDS011;11995;50.842;4.456;2023-02-01T10:31:58;26.75;;;5.12;;
23636;SDS011;11995;50.842;4.456;2023-02-01T10:34:32;40.67;;;5.15;;
23636;SDS011;11995;50.842;4.456;2023-02-01T10:37:09;27.48;;;4.75;;
23636;SDS011;11995;50.842;4.456;2023-02-01T10:39:48;25.17;;;5.90;;
23636;SDS011;11995;50.842;4.456;2023-02-01T10:42:20;21.10;;;3.45;;
23636;SDS011;11995;50.842;4.456;2023-02-01T10:44:49;23.10;;;4.33;;
23636;SDS011;11995;50.842;4.456;2023-02-01T10:47:18;25.40;;;5.37;;
23636;SDS011;11995;50.842;4.456;2023-02-01T10:49:58;23.47;;;4.22;;
23636;SDS011;11995;50.842;4.456;2023-02-01T10:55:25;28.90;;;4.72;;
23636;SDS011;11995;50.842;4.456;2023-02-01T10:57:59;23.55;;;4.03;;
23636;SDS011;11995;50.842;4.456;2023-02-01T11:00:24;26.35;;;5.60;;
23636;SDS011;11995;50.842;4.456;2023-02-01T11:02:52;27.10;;;4.62;;
23636;SDS011;11995;50.842;4.456;2023-02-01T11:05:21;22.85;;;4.85;;
23636;SDS011;11995;50.842;4.456;2023-02-01T11:07:54;20.65;;;3.92;;
23636;SDS011;11995;50.842;4.456;2023-02-01T11:10:35;23.32;;;3.90;;
23636;SDS011;11995;50.842;4.456;2023-02-01T11:13:11;25.20;;;3.75;;
23636;SDS011;11995;50.842;4.456;2023-02-01T11:15:43;24.60;;;4.42;;
23636;SDS011;11995;50.842;4.456;2023-02-01T11:18:17;29.90;;;4.33;;
23636;SDS011;11995;50.842;4.456;2023-02-01T11:20:48;20.65;;;3.60;;
23636;SDS011;11995;50.842;4.456;2023-02-01T11:28:23;22.15;;;4.12;;
23636;SDS011;11995;50.842;4.456;2023-02-01T11:30:54;25.97;;;3.95;;
23636;SDS011;11995;50.842;4.456;2023-02-01T11:33:25;19.82;;;4.12;;
23636;SDS011;11995;50.842;4.456;2023-02-01T11:35:56;25.20;;;4.03;;
23636;SDS011;11995;50.842;4.456;2023-02-01T11:41:10;37.05;;;4.67;;
23636;SDS011;11995;50.842;4.456;2023-02-01T11:43:55;25.82;;;3.70;;
23636;SDS011;11995;50.842;4.456;2023-02-01T11:46:28;25.52;;;3.80;;
23636;SDS011;11995;50.842;4.456;2023-02-01T11:49:05;23.57;;;3.55;;
23636;SDS011;11995;50.842;4.456;2023-02-01T11:51:57;36.90;;;4.40;;
23636;SDS011;11995;50.842;4.456;2023-02-01T11:57:39;27.77;;;4.25;;
23636;SDS011;11995;50.842;4.456;2023-02-01T12:10:58;20.82;;;3.10;;
23636;SDS011;11995;50.842;4.456;2023-02-01T12:16:02;18.10;;;3.02;;
23636;SDS011;11995;50.842;4.456;2023-02-01T12:19:02;19.95;;;3.37;;
23636;SDS011;11995;50.842;4.456;2023-02-01T12:35:41;33.53;;;4.28;;
23636;SDS011;11995;50.842;4.456;2023-02-01T12:41:04;25.80;;;3.92;;
23636;SDS011;11995;50.842;4.456;2023-02-01T12:43:38;25.90;;;3.35;;
23636;SDS011;11995;50.842;4.456;2023-02-01T12:46:14;52.65;;;7.22;;
23636;SDS011;11995;50.842;4.456;2023-02-01T12:51:42;29.18;;;3.77;;
23636;SDS011;11995;50.842;4.456;2023-02-01T12:56:53;29.10;;;3.45;;
23636;SDS011;11995;50.842;4.456;2023-02-01T12:59:26;20.70;;;3.15;;
23636;SDS011;11995;50.842;4.456;2023-02-01T13:02:06;34.90;;;3.85;;
23636;SDS011;11995;50.842;4.456;2023-02-01T13:07:10;21.87;;;4.78;;
23636;SDS011;11995;50.842;4.456;2023-02-01T13:09:40;24.70;;;2.80;;
23636;SDS011;11995;50.842;4.456;2023-02-01T13:15:10;21.10;;;3.35;;
23636;SDS011;11995;50.842;4.456;2023-02-01T13:17:44;19.25;;;2.70;;
23636;SDS011;11995;50.842;4.456;2023-02-01T13:20:23;15.95;;;3.20;;
23636;SDS011;11995;50.842;4.456;2023-02-01T13:23:08;23.25;;;2.92;;
23636;SDS011;11995;50.842;4.456;2023-02-01T13:28:16;9.78;;;2.10;;
23636;SDS011;11995;50.842;4.456;2023-02-01T13:33:23;16.65;;;2.33;;
23636;SDS011;11995;50.842;4.456;2023-02-01T13:36:01;21.68;;;2.92;;
23636;SDS011;11995;50.842;4.456;2023-02-01T13:38:51;11.55;;;2.02;;
23636;SDS011;11995;50.842;4.456;2023-02-01T13:44:01;15.15;;;2.75;;
23636;SDS011;11995;50.842;4.456;2023-02-01T13:46:41;18.45;;;3.02;;
23636;SDS011;11995;50.842;4.456;2023-02-01T13:49:18;22.73;;;3.12;;
23636;SDS011;11995;50.842;4.456;2023-02-01T13:51:56;17.87;;;3.17;;
23636;SDS011;11995;50.842;4.456;2023-02-01T13:54:38;18.67;;;2.55;;
23636;SDS011;11995;50.842;4.456;2023-02-01T13:57:14;30.85;;;3.70;;
23636;SDS011;11995;50.842;4.456;2023-02-01T14:05:11;13.40;;;2.33;;
23636;SDS011;11995;50.842;4.456;2023-02-01T14:13:35;19.15;;;3.40;;
23636;SDS011;11995;50.842;4.456;2023-02-01T14:26:23;13.15;;;2.15;;
23636;SDS011;11995;50.842;4.456;2023-02-01T14:32:05;17.80;;;3.05;;
23636;SDS011;11995;50.842;4.456;2023-02-01T14:47:48;25.62;;;3.47;;
23636;SDS011;11995;50.842;4.456;2023-02-01T14:50:27;26.90;;;3.40;;
23636;SDS011;11995;50.842;4.456;2023-02-01T14:55:42;16.10;;;3.30;;
23636;SDS011;11995;50.842;4.456;2023-02-01T14:58:31;15.98;;;2.77;;
23636;SDS011;11995;50.842;4.456;2023-02-01T15:03:47;20.65;;;2.58;;
23636;SDS011;11995;50.842;4.456;2023-02-01T15:09:28;24.87;;;3.25;;
23636;SDS011;11995;50.842;4.456;2023-02-01T15:14:38;24.50;;;3.42;;
23636;SDS011;11995;50.842;4.456;2023-02-01T15:17:21;25.97;;;3.45;;
23636;SDS011;11995;50.842;4.456;2023-02-01T15:23:20;43.38;;;6.03;;
23636;SDS011;11995;50.842;4.456;2023-02-01T15:25:25;23.65;;;3.95;;
23636;SDS011;11995;50.842;4.456;2023-02-01T15:27:54;19.55;;;3.62;;
23636;SDS011;11995;50.842;4.456;2023-02-01T15:30:26;22.52;;;3.67;;
23636;SDS011;11995;50.842;4.456;2023-02-01T15:33:06;22.98;;;3.65;;
23636;SDS011;11995;50.842;4.456;2023-02-01T15:35:42;30.10;;;4.12;;
23636;SDS011;11995;50.842;4.456;2023-02-01T15:41:06;26.33;;;4.08;;
23636;SDS011;11995;50.842;4.456;2023-02-01T15:46:21;21.02;;;3.62;;
23636;SDS011;11995;50.842;4.456;2023-02-01T15:48:53;22.67;;;3.58;;
23636;SDS011;11995;50.842;4.456;2023-02-01T15:51:23;22.15;;;3.72;;
23636;SDS011;11995;50.842;4.456;2023-02-01T15:53:57;39.03;;;14.58;;
23636;SDS011;11995;50.842;4.456;2023-02-01T15:56:27;26.85;;;5.15;;
23636;SDS011;11995;50.842;4.456;2023-02-01T15:58:59;22.70;;;3.72;;
23636;SDS011;11995;50.842;4.456;2023-02-01T16:01:27;30.60;;;4.80;;
23636;SDS011;11995;50.842;4.456;2023-02-01T16:04:11;19.02;;;6.85;;
23636;SDS011;11995;50.842;4.456;2023-02-01T16:06:33;25.77;;;8.48;;
23636;SDS011;11995;50.842;4.456;2023-02-01T16:09:03;34.80;;;6.45;;
23636;SDS011;11995;50.842;4.456;2023-02-01T16:11:32;16.65;;;3.62;;
23636;SDS011;11995;50.842;4.456;2023-02-01T16:14:01;19.60;;;3.95;;
23636;SDS011;11995;50.842;4.456;2023-02-01T16:16:29;26.45;;;4.87;;
23636;SDS011;11995;50.842;4.456;2023-02-01T16:18:57;24.75;;;3.95;;
23636;SDS011;11995;50.842;4.456;2023-02-01T16:21:24;25.00;;;4.53;;
23636;SDS011;11995;50.842;4.456;2023-02-01T16:23:52;28.57;;;4.92;;
23636;SDS011;11995;50.842;4.456;2023-02-01T16:26:20;23.30;;;4.70;;
23636;SDS011;11995;50.842;4.456;2023-02-01T16:28:47;22.13;;;4.33;;
23636;SDS011;11995;50.842;4.456;2023-02-01T16:31:15;21.68;;;4.37;;
23636;SDS011;11995;50.842;4.456;2023-02-01T16:33:48;26.60;;;3.80;;
23636;SDS011;11995;50.842;4.456;2023-02-01T16:36:18;40.05;;;7.50;;
23636;SDS011;11995;50.842;4.456;2023-02-01T16:38:46;26.05;;;5.37;;
23636;SDS011;11995;50.842;4.456;2023-02-01T16:41:16;19.67;;;3.70;;
23636;SDS011;11995;50.842;4.456;2023-02-01T16:43:44;22.15;;;4.25;;
23636;SDS011;11995;50.842;4.456;2023-02-01T16:46:19;30.95;;;4.67;;
23636;SDS011;11995;50.842;4.456;2023-02-01T16:48:48;28.15;;;3.55;;
23636;SDS011;11995;50.842;4.456;2023-02-01T16:51:18;23.15;;;3.25;;
23636;SDS011;11995;50.842;4.456;2023-02-01T16:53:46;20.08;;;4.47;;
23636;SDS011;11995;50.842;4.456;2023-02-01T16:56:22;33.63;;;4.53;;
23636;SDS011;11995;50.842;4.456;2023-02-01T16:58:48;23.12;;;3.45;;
23636;SDS011;11995;50.842;4.456;2023-02-01T17:01:18;28.65;;;5.25;;
23636;SDS011;11995;50.842;4.456;2023-02-01T17:03:45;23.00;;;4.30;;
23636;SDS011;11995;50.842;4.456;2023-02-01T17:06:17;20.90;;;4.55;;
23636;SDS011;11995;50.842;4.456;2023-02-01T17:08:56;30.08;;;4.83;;
23636;SDS011;11995;50.842;4.456;2023-02-01T17:11:26;25.43;;;4.58;;
23636;SDS011;11995;50.842;4.456;2023-02-01T17:13:56;19.62;;;3.37;;
23636;SDS011;11995;50.842;4.456;2023-02-01T17:16:37;20.35;;;5.25;;
23636;SDS011;11995;50.842;4.456;2023-02-01T17:19:08;24.77;;;5.23;;
23636;SDS011;11995;50.842;4.456;2023-02-01T17:21:48;22.85;;;4.95;;
23636;SDS011;11995;50.842;4.456;2023-02-01T17:24:22;26.30;;;5.12;;
23636;SDS011;11995;50.842;4.456;2023-02-01T17:26:48;21.55;;;4.97;;
23636;SDS011;11995;50.842;4.456;2023-02-01T17:29:18;28.70;;;6.12;;
23636;SDS011;11995;50.842;4.456;2023-02-01T17:31:50;23.12;;;4.92;;
23636;SDS011;11995;50.842;4.456;2023-02-01T17:34:16;26.55;;;4.62;;
23636;SDS011;11995;50.842;4.456;2023-02-01T17:36:44;18.55;;;4.53;;
23636;SDS011;11995;50.842;4.456;2023-02-01T17:39:13;28.80;;;5.90;;
23636;SDS011;11995;50.842;4.456;2023-02-01T17:41:43;18.37;;;4.53;;
23636;SDS011;11995;50.842;4.456;2023-02-01T17:44:12;24.30;;;5.30;;
23636;SDS011;11995;50.842;4.456;2023-02-01T17:46:39;26.85;;;10.10;;
23636;SDS011;11995;50.842;4.456;2023-02-01T17:49:07;37.93;;;15.03;;
23636;SDS011;11995;50.842;4.456;2023-02-01T17:51:34;30.08;;;5.92;;